createdAt,value
2017-08-25T00:01:06.494Z,1013.86
2017-08-25T00:02:15.775Z,1013.91
2017-08-25T00:03:25.219Z,1013.87
2017-08-25T00:04:35.151Z,1013.88
2017-08-25T00:05:44.129Z,1013.86
2017-08-25T00:06:52.778Z,1013.86
2017-08-25T00:08:01.440Z,1013.86
2017-08-25T00:09:10.571Z,1013.85
2017-08-25T00:10:19.858Z,1013.81
2017-08-25T00:11:28.518Z,1013.85
2017-08-25T00:12:38.109Z,1013.85
2017-08-25T00:13:46.766Z,1013.84
2017-08-25T00:14:56.202Z,1013.88
2017-08-25T00:16:05.183Z,1013.9
2017-08-25T00:17:13.939Z,1013.91
2017-08-25T00:18:22.597Z,1013.91
2017-08-25T00:19:31.901Z,1013.9
2017-08-25T00:20:41.343Z,1013.89
2017-08-25T00:21:50.626Z,1013.91
2017-08-25T00:22:59.633Z,1013.89
2017-08-25T00:24:08.602Z,1013.92
2017-08-25T00:25:18.522Z,1013.96
2017-08-25T00:26:27.517Z,1013.93
2017-08-25T00:27:36.174Z,1013.96
2017-08-25T00:28:44.851Z,1013.96
2017-08-25T00:29:53.814Z,1013.97
2017-08-25T00:31:03.109Z,1013.97
2017-08-25T00:32:12.551Z,1013.97
2017-08-25T00:33:21.532Z,1014
2017-08-25T00:34:30.502Z,1013.99
2017-08-25T00:35:39.155Z,1014.04
2017-08-25T00:36:48.140Z,1014.04
2017-08-25T00:37:57.473Z,1014
2017-08-25T00:39:06.440Z,1014.05
2017-08-25T00:40:15.410Z,1014.02
2017-08-25T00:41:25.018Z,1014
2017-08-25T00:42:34.315Z,1014
2017-08-25T00:43:43.130Z,1014.02
2017-08-25T00:44:52.140Z,1014.01
2017-08-25T00:46:01.492Z,1013.99
2017-08-25T00:47:10.459Z,1013.98
2017-08-25T00:48:19.486Z,1014.03
2017-08-25T00:49:28.455Z,1014.04
2017-08-25T00:50:37.429Z,1014.04
2017-08-25T00:51:46.403Z,1014.05
2017-08-25T00:52:55.056Z,1014.07
2017-08-25T00:54:04.372Z,1014.07
2017-08-25T00:55:13.452Z,1014.07
2017-08-25T00:56:22.745Z,1014.08
2017-08-25T00:57:32.042Z,1014.05
2017-08-25T00:58:40.710Z,1014.04
2017-08-25T00:59:49.449Z,1014.01
2017-08-25T01:00:59.082Z,1014.03
2017-08-25T01:02:08.679Z,1014.03
2017-08-25T01:03:17.651Z,1014.06
2017-08-25T01:04:26.947Z,1014.09
2017-08-25T01:05:36.859Z,1014.09
2017-08-25T01:06:45.568Z,1014.08
2017-08-25T01:07:54.852Z,1014.13
2017-08-25T01:09:03.812Z,1014.13
2017-08-25T01:10:13.093Z,1014.11
2017-08-25T01:11:22.053Z,1014.16
2017-08-25T01:12:31.172Z,1014.16
2017-08-25T01:13:40.464Z,1014.18
2017-08-25T01:14:49.131Z,1014.2
2017-08-25T01:15:57.854Z,1014.16
2017-08-25T01:17:06.822Z,1014.14
2017-08-25T01:18:16.101Z,1014.19
2017-08-25T01:19:25.141Z,1014.15
2017-08-25T01:20:34.106Z,1014.11
2017-08-25T01:21:43.069Z,1014.11
2017-08-25T01:22:52.028Z,1014.12
2017-08-25T01:24:01.647Z,1014.1
2017-08-25T01:25:11.261Z,1014.11
2017-08-25T01:26:20.863Z,1014.08
2017-08-25T01:27:29.833Z,1014.11
2017-08-25T01:28:38.499Z,1014.11
2017-08-25T01:29:47.315Z,1014.11
2017-08-25T01:30:56.929Z,1014.14
2017-08-25T01:32:06.203Z,1014.1
2017-08-25T01:33:15.174Z,1014.14
2017-08-25T01:34:24.472Z,1014.16
2017-08-25T01:35:33.593Z,1014.15
2017-08-25T01:36:42.584Z,1014.18
2017-08-25T01:37:51.523Z,1014.17
2017-08-25T01:39:00.175Z,1014.18
2017-08-25T01:40:09.138Z,1014.2
2017-08-25T01:41:18.132Z,1014.18
2017-08-25T01:42:26.787Z,1014.19
2017-08-25T01:43:36.076Z,1014.17
2017-08-25T01:44:45.099Z,1014.21
2017-08-25T01:45:54.695Z,1014.21
2017-08-25T01:47:03.807Z,1014.23
2017-08-25T01:48:12.478Z,1014.19
2017-08-25T01:49:21.775Z,1014.17
2017-08-25T01:50:30.748Z,1014.2
2017-08-25T01:51:39.712Z,1014.17
2017-08-25T01:52:48.983Z,1014.13
2017-08-25T01:53:58.275Z,1014.13
2017-08-25T01:55:07.259Z,1014.14
2017-08-25T01:56:15.913Z,1014.12
2017-08-25T01:57:25.536Z,1014.12
2017-08-25T01:58:35.307Z,1014.12
2017-08-25T01:59:43.955Z,1014.11
2017-08-25T02:00:53.563Z,1014.12
2017-08-25T02:02:03.168Z,1014.12
2017-08-25T02:03:12.766Z,1014.13
2017-08-25T02:04:22.185Z,1014.08
2017-08-25T02:05:31.773Z,1014.09
2017-08-25T02:06:40.731Z,1014.07
2017-08-25T02:07:50.323Z,1014.08
2017-08-25T02:08:59.303Z,1014.07
2017-08-25T02:10:08.274Z,1014.05
2017-08-25T02:11:16.925Z,1014.04
2017-08-25T02:12:25.915Z,1014.02
2017-08-25T02:13:35.209Z,1014.02
2017-08-25T02:14:44.171Z,1014.01
2017-08-25T02:15:53.295Z,1013.96
2017-08-25T02:17:02.264Z,1013.97
2017-08-25T02:18:11.537Z,1013.94
2017-08-25T02:19:20.814Z,1014.01
2017-08-25T02:20:29.780Z,1013.99
2017-08-25T02:21:38.639Z,1013.95
2017-08-25T02:22:47.933Z,1013.99
2017-08-25T02:23:57.573Z,1013.99
2017-08-25T02:25:07.176Z,1014.03
2017-08-25T02:26:16.151Z,1014.08
2017-08-25T02:27:25.294Z,1014.02
2017-08-25T02:28:34.253Z,1014.09
2017-08-25T02:29:43.216Z,1014.08
2017-08-25T02:30:52.251Z,1014.09
2017-08-25T02:32:01.838Z,1014.1
2017-08-25T02:33:12.116Z,1014.09
2017-08-25T02:34:20.768Z,1014.09
2017-08-25T02:35:29.761Z,1014.1
2017-08-25T02:36:38.736Z,1014.04
2017-08-25T02:37:48.010Z,1014.07
2017-08-25T02:38:57.320Z,1014.08
2017-08-25T02:40:06.611Z,1014.03
2017-08-25T02:41:15.582Z,1014.07
2017-08-25T02:42:24.249Z,1014.06
2017-08-25T02:43:33.850Z,1014.03
2017-08-25T02:44:42.976Z,1014.05
2017-08-25T02:45:51.645Z,1014.03
2017-08-25T02:47:00.310Z,1014.01
2017-08-25T02:48:09.270Z,1013.97
2017-08-25T02:49:18.582Z,1013.98
2017-08-25T02:50:27.864Z,1013.96
2017-08-25T02:51:37.150Z,1013.96
2017-08-25T02:52:46.447Z,1013.97
2017-08-25T02:53:56.117Z,1013.97
2017-08-25T02:55:05.095Z,1013.94
2017-08-25T02:56:14.858Z,1013.97
2017-08-25T02:57:24.137Z,1013.92
2017-08-25T02:58:33.419Z,1013.95
2017-08-25T02:59:42.471Z,1013.95
2017-08-25T03:00:51.759Z,1013.97
2017-08-25T03:02:00.896Z,1013.97
2017-08-25T03:03:10.230Z,1013.94
2017-08-25T03:04:18.882Z,1013.95
2017-08-25T03:05:28.159Z,1013.94
2017-08-25T03:06:37.145Z,1013.92
2017-08-25T03:07:45.913Z,1013.94
2017-08-25T03:08:54.900Z,1013.91
2017-08-25T03:10:04.535Z,1013.95
2017-08-25T03:11:13.501Z,1013.95
2017-08-25T03:12:23.090Z,1013.93
2017-08-25T03:13:32.531Z,1013.93
2017-08-25T03:14:41.834Z,1013.93
2017-08-25T03:15:50.804Z,1013.97
2017-08-25T03:16:59.777Z,1013.97
2017-08-25T03:18:09.384Z,1014.04
2017-08-25T03:19:18.773Z,1014
2017-08-25T03:20:28.376Z,1014.01
2017-08-25T03:21:37.655Z,1013.99
2017-08-25T03:22:46.624Z,1013.97
2017-08-25T03:23:55.284Z,1013.97
2017-08-25T03:25:04.052Z,1013.93
2017-08-25T03:26:13.017Z,1013.96
2017-08-25T03:27:22.001Z,1013.95
2017-08-25T03:28:30.658Z,1013.87
2017-08-25T03:29:39.627Z,1013.87
2017-08-25T03:30:49.373Z,1013.84
2017-08-25T03:31:58.980Z,1013.82
2017-08-25T03:33:07.962Z,1013.82
2017-08-25T03:34:17.245Z,1013.85
2017-08-25T03:35:26.529Z,1013.86
2017-08-25T03:36:35.684Z,1013.81
2017-08-25T03:37:44.647Z,1013.79
2017-08-25T03:38:53.618Z,1013.74
2017-08-25T03:40:02.902Z,1013.74
2017-08-25T03:41:12.202Z,1013.77
2017-08-25T03:42:21.337Z,1013.83
2017-08-25T03:43:30.012Z,1013.85
2017-08-25T03:44:38.999Z,1013.88
2017-08-25T03:45:47.980Z,1013.92
2017-08-25T03:46:57.283Z,1013.88
2017-08-25T03:48:06.276Z,1013.89
2017-08-25T03:49:15.565Z,1013.84
2017-08-25T03:50:25.172Z,1013.85
2017-08-25T03:51:33.845Z,1013.91
2017-08-25T03:52:42.809Z,1013.93
2017-08-25T03:53:52.256Z,1013.93
2017-08-25T03:55:01.565Z,1013.9
2017-08-25T03:56:10.606Z,1013.86
2017-08-25T03:57:19.267Z,1013.9
2017-08-25T03:58:27.935Z,1013.93
2017-08-25T03:59:37.354Z,1013.97
2017-08-25T04:00:46.642Z,1013.92
2017-08-25T04:01:55.926Z,1013.95
2017-08-25T04:03:04.901Z,1013.93
2017-08-25T04:04:14.195Z,1013.98
2017-08-25T04:05:23.479Z,1013.96
2017-08-25T04:06:32.823Z,1014
2017-08-25T04:07:42.098Z,1014.02
2017-08-25T04:08:51.383Z,1014.06
2017-08-25T04:10:00.717Z,1014.01
2017-08-25T04:11:10.182Z,1014.01
2017-08-25T04:12:19.153Z,1014.04
2017-08-25T04:13:27.809Z,1014.11
2017-08-25T04:14:37.097Z,1014.08
2017-08-25T04:15:46.370Z,1014.15
2017-08-25T04:16:56.021Z,1014.17
2017-08-25T04:18:04.984Z,1014.14
2017-08-25T04:19:13.962Z,1014.14
2017-08-25T04:20:23.276Z,1014.11
2017-08-25T04:21:32.871Z,1014.08
2017-08-25T04:22:42.136Z,1014.04
2017-08-25T04:23:51.108Z,1014.06
2017-08-25T04:25:01.050Z,1014.07
2017-08-25T04:26:10.331Z,1014.09
2017-08-25T04:27:19.615Z,1014.07
2017-08-25T04:28:28.738Z,1014.12
2017-08-25T04:29:37.407Z,1014.16
2017-08-25T04:30:46.425Z,1014.16
2017-08-25T04:31:55.715Z,1014.15
2017-08-25T04:33:04.996Z,1014.16
2017-08-25T04:34:14.602Z,1014.1
2017-08-25T04:35:23.881Z,1014.08
2017-08-25T04:36:33.183Z,1014.06
2017-08-25T04:37:42.165Z,1014.07
2017-08-25T04:38:51.440Z,1014.08
2017-08-25T04:40:00.562Z,1014.1
2017-08-25T04:41:09.849Z,1014.09
2017-08-25T04:42:18.846Z,1014.1
2017-08-25T04:43:27.502Z,1014.1
2017-08-25T04:44:36.797Z,1014.13
2017-08-25T04:45:46.081Z,1014.2
2017-08-25T04:46:55.045Z,1014.15
2017-08-25T04:48:04.003Z,1014.2
2017-08-25T04:49:13.917Z,1014.23
2017-08-25T04:50:22.891Z,1014.3
2017-08-25T04:51:32.221Z,1014.32
2017-08-25T04:52:41.193Z,1014.31
2017-08-25T04:53:50.176Z,1014.27
2017-08-25T04:54:59.159Z,1014.3
2017-08-25T04:56:08.442Z,1014.28
2017-08-25T04:57:17.562Z,1014.2
2017-08-25T04:58:27.153Z,1014.21
2017-08-25T04:59:36.736Z,1014.24
2017-08-25T05:00:45.693Z,1014.25
2017-08-25T05:01:54.339Z,1014.23
2017-08-25T05:03:03.453Z,1014.26
2017-08-25T05:04:12.421Z,1014.23
2017-08-25T05:05:21.466Z,1014.2
2017-08-25T05:06:30.430Z,1014.17
2017-08-25T05:07:39.401Z,1014.19
2017-08-25T05:08:48.429Z,1014.2
2017-08-25T05:09:57.079Z,1014.19
2017-08-25T05:11:06.354Z,1014.23
2017-08-25T05:12:16.015Z,1014.2
2017-08-25T05:13:24.995Z,1014.22
2017-08-25T05:14:34.424Z,1014.24
2017-08-25T05:15:43.392Z,1014.24
2017-08-25T05:16:52.679Z,1014.25
2017-08-25T05:18:01.651Z,1014.27
2017-08-25T05:19:10.933Z,1014.27
2017-08-25T05:20:19.909Z,1014.31
2017-08-25T05:21:29.190Z,1014.34
2017-08-25T05:22:38.164Z,1014.38
2017-08-25T05:23:46.825Z,1014.38
2017-08-25T05:24:55.485Z,1014.38
2017-08-25T05:26:04.599Z,1014.32
2017-08-25T05:27:13.256Z,1014.28
2017-08-25T05:28:22.227Z,1014.25
2017-08-25T05:29:31.823Z,1014.22
2017-08-25T05:30:40.794Z,1014.19
2017-08-25T05:31:49.584Z,1014.16
2017-08-25T05:32:58.555Z,1014.19
2017-08-25T05:34:07.526Z,1014.17
2017-08-25T05:35:16.802Z,1014.12
2017-08-25T05:36:25.775Z,1014.13
2017-08-25T05:37:34.796Z,1014.09
2017-08-25T05:38:44.398Z,1014.16
2017-08-25T05:39:53.724Z,1014.13
2017-08-25T05:41:03.010Z,1014.12
2017-08-25T05:42:12.008Z,1014.1
2017-08-25T05:43:21.034Z,1014.11
2017-08-25T05:44:29.708Z,1014.13
2017-08-25T05:45:39.004Z,1014.17
2017-08-25T05:46:47.991Z,1014.11
2017-08-25T05:47:56.998Z,1014.08
2017-08-25T05:49:06.137Z,1014.09
2017-08-25T05:50:15.476Z,1014.1
2017-08-25T05:51:50.768Z,1014.17
2017-08-25T05:52:59.766Z,1014.18
2017-08-25T05:54:08.892Z,1014.18
2017-08-25T05:55:17.883Z,1014.22
2017-08-25T05:56:27.185Z,1014.23
2017-08-25T05:57:36.156Z,1014.22
2017-08-25T05:58:44.833Z,1014.18
2017-08-25T05:59:54.164Z,1014.17
2017-08-25T06:01:03.161Z,1014.13
2017-08-25T06:02:12.456Z,1014.14
2017-08-25T06:03:21.437Z,1014.18
2017-08-25T06:04:30.459Z,1014.19
2017-08-25T06:05:39.759Z,1014.19
2017-08-25T06:06:49.068Z,1014.21
2017-08-25T06:07:58.055Z,1014.27
2017-08-25T06:09:07.357Z,1014.3
2017-08-25T06:10:16.654Z,1014.31
2017-08-25T06:11:26.007Z,1014.32
2017-08-25T06:12:34.692Z,1014.29
2017-08-25T06:13:43.669Z,1014.32
2017-08-25T06:14:52.649Z,1014.29
2017-08-25T06:16:02.264Z,1014.23
2017-08-25T06:17:11.985Z,1014.21
2017-08-25T06:18:20.978Z,1014.24
2017-08-25T06:19:31.968Z,1014.26
2017-08-25T06:20:40.943Z,1014.26
2017-08-25T06:21:50.020Z,1014.24
2017-08-25T06:22:59.375Z,1014.27
2017-08-25T06:24:08.676Z,1014.27
2017-08-25T06:25:17.972Z,1014.25
2017-08-25T06:26:26.682Z,1014.26
2017-08-25T06:27:35.658Z,1014.24
2017-08-25T06:28:44.970Z,1014.27
2017-08-25T06:29:53.986Z,1014.32
2017-08-25T06:31:02.958Z,1014.28
2017-08-25T06:32:11.964Z,1014.3
2017-08-25T06:33:20.666Z,1014.34
2017-08-25T06:34:29.433Z,1014.35
2017-08-25T06:35:38.408Z,1014.37
2017-08-25T06:36:47.395Z,1014.45
2017-08-25T06:37:56.755Z,1014.4
2017-08-25T06:39:05.733Z,1014.44
2017-08-25T06:40:14.710Z,1014.38
2017-08-25T06:41:23.376Z,1014.37
2017-08-25T06:42:32.683Z,1014.4
2017-08-25T06:43:41.663Z,1014.41
2017-08-25T06:44:50.638Z,1014.41
2017-08-25T06:45:59.614Z,1014.4
2017-08-25T06:47:08.646Z,1014.37
2017-08-25T06:48:17.309Z,1014.43
2017-08-25T06:49:26.631Z,1014.45
2017-08-25T06:50:35.324Z,1014.4
2017-08-25T06:51:44.646Z,1014.4
2017-08-25T06:52:53.341Z,1014.36
2017-08-25T06:54:02.335Z,1014.37
2017-08-25T06:55:11.635Z,1014.38
2017-08-25T06:56:21.314Z,1014.39
2017-08-25T06:57:30.091Z,1014.4
2017-08-25T06:58:39.386Z,1014.39
2017-08-25T06:59:48.371Z,1014.41
2017-08-25T07:00:57.372Z,1014.4
2017-08-25T07:02:06.376Z,1014.38
2017-08-25T07:03:15.736Z,1014.41
2017-08-25T07:04:25.062Z,1014.39
2017-08-25T07:05:34.392Z,1014.42
2017-08-25T07:06:43.063Z,1014.38
2017-08-25T07:07:52.057Z,1014.35
2017-08-25T07:09:01.820Z,1014.35
2017-08-25T07:10:11.116Z,1014.3
2017-08-25T07:11:21.057Z,1014.31
2017-08-25T07:12:30.368Z,1014.28
2017-08-25T07:13:39.104Z,1014.28
2017-08-25T07:14:48.557Z,1014.3
2017-08-25T07:15:57.540Z,1014.35
2017-08-25T07:17:06.522Z,1014.37
2017-08-25T07:18:15.833Z,1014.37
2017-08-25T07:19:24.886Z,1014.45
2017-08-25T07:20:34.189Z,1014.45
2017-08-25T07:21:42.851Z,1014.45
2017-08-25T07:22:52.473Z,1014.44
2017-08-25T07:24:01.131Z,1014.46
2017-08-25T07:25:10.113Z,1014.44
2017-08-25T07:26:19.576Z,1014.5
2017-08-25T07:27:28.873Z,1014.55
2017-08-25T07:28:38.190Z,1014.53
2017-08-25T07:29:47.698Z,1014.53
2017-08-25T07:30:57.126Z,1014.55
2017-08-25T07:32:06.512Z,1014.53
2017-08-25T07:33:15.481Z,1014.58
2017-08-25T07:34:24.246Z,1014.6
2017-08-25T07:35:33.241Z,1014.61
2017-08-25T07:36:42.586Z,1014.61
2017-08-25T07:37:51.739Z,1014.64
2017-08-25T07:39:00.433Z,1014.64
2017-08-25T07:40:09.470Z,1014.63
2017-08-25T07:41:18.455Z,1014.64
2017-08-25T07:42:27.456Z,1014.61
2017-08-25T07:43:36.450Z,1014.66
2017-08-25T07:44:45.456Z,1014.65
2017-08-25T07:45:55.086Z,1014.63
2017-08-25T07:47:03.752Z,1014.64
2017-08-25T07:48:12.736Z,1014.65
2017-08-25T07:49:22.511Z,1014.62
2017-08-25T07:50:31.168Z,1014.59
2017-08-25T07:51:40.467Z,1014.56
2017-08-25T07:52:50.106Z,1014.56
2017-08-25T07:53:58.775Z,1014.56
2017-08-25T07:55:07.939Z,1014.57
2017-08-25T07:56:16.942Z,1014.59
2017-08-25T07:57:26.230Z,1014.55
2017-08-25T07:58:35.220Z,1014.53
2017-08-25T07:59:44.854Z,1014.6
2017-08-25T08:00:54.501Z,1014.58
2017-08-25T08:02:03.785Z,1014.6
2017-08-25T08:03:12.454Z,1014.62
2017-08-25T08:04:21.747Z,1014.6
2017-08-25T08:05:30.725Z,1014.64
2017-08-25T08:06:39.406Z,1014.63
2017-08-25T08:07:48.398Z,1014.62
2017-08-25T08:08:57.457Z,1014.66
2017-08-25T08:10:06.461Z,1014.65
2017-08-25T08:11:15.787Z,1014.62
2017-08-25T08:12:24.773Z,1014.64
2017-08-25T08:13:33.760Z,1014.65
2017-08-25T08:14:43.374Z,1014.68
2017-08-25T08:15:52.074Z,1014.64
2017-08-25T08:17:01.066Z,1014.65
2017-08-25T08:18:10.844Z,1014.71
2017-08-25T08:19:20.149Z,1014.68
2017-08-25T08:20:28.819Z,1014.67
2017-08-25T08:21:38.125Z,1014.63
2017-08-25T08:22:48.070Z,1014.66
2017-08-25T08:23:57.514Z,1014.67
2017-08-25T08:25:06.176Z,1014.64
2017-08-25T08:26:14.907Z,1014.6
2017-08-25T08:27:23.579Z,1014.63
2017-08-25T08:28:32.246Z,1014.57
2017-08-25T08:29:41.615Z,1014.61
2017-08-25T08:30:50.591Z,1014.56
2017-08-25T08:31:59.566Z,1014.56
2017-08-25T08:33:08.566Z,1014.54
2017-08-25T08:34:17.548Z,1014.56
2017-08-25T08:35:26.994Z,1014.51
2017-08-25T08:36:35.989Z,1014.53
2017-08-25T08:37:45.005Z,1014.52
2017-08-25T08:38:54.000Z,1014.52
2017-08-25T08:40:03.325Z,1014.52
2017-08-25T08:41:12.097Z,1014.53
2017-08-25T08:42:21.732Z,1014.5
2017-08-25T08:43:31.033Z,1014.54
2017-08-25T08:44:40.024Z,1014.54
2017-08-25T08:45:48.700Z,1014.49
2017-08-25T08:46:57.665Z,1014.47
2017-08-25T08:48:06.995Z,1014.44
2017-08-25T08:49:16.298Z,1014.45
2017-08-25T08:50:25.288Z,1014.42
2017-08-25T08:51:33.960Z,1014.44
2017-08-25T08:52:43.367Z,1014.43
2017-08-25T08:53:52.364Z,1014.43
2017-08-25T08:55:01.666Z,1014.46
2017-08-25T08:56:10.770Z,1014.43
2017-08-25T08:57:20.065Z,1014.42
2017-08-25T08:58:29.085Z,1014.46
2017-08-25T08:59:38.692Z,1014.47
2017-08-25T09:00:47.995Z,1014.49
2017-08-25T09:01:57.297Z,1014.51
2017-08-25T09:03:06.907Z,1014.5
2017-08-25T09:04:15.942Z,1014.46
2017-08-25T09:05:24.942Z,1014.43
2017-08-25T09:06:33.615Z,1014.43
2017-08-25T09:07:43.003Z,1014.44
2017-08-25T09:08:51.997Z,1014.42
2017-08-25T09:10:00.663Z,1014.43
2017-08-25T09:11:09.677Z,1014.39
2017-08-25T09:12:18.985Z,1014.39
2017-08-25T09:13:28.740Z,1014.37
2017-08-25T09:14:37.740Z,1014.36
2017-08-25T09:15:47.061Z,1014.36
2017-08-25T09:16:56.061Z,1014.36
2017-08-25T09:18:05.669Z,1014.32
2017-08-25T09:19:15.102Z,1014.33
2017-08-25T09:20:24.094Z,1014.36
2017-08-25T09:21:33.234Z,1014.3
2017-08-25T09:22:42.535Z,1014.32
2017-08-25T09:23:51.197Z,1014.3
2017-08-25T09:25:00.490Z,1014.3
2017-08-25T09:26:09.800Z,1014.29
2017-08-25T09:27:18.836Z,1014.33
2017-08-25T09:28:28.156Z,1014.25
2017-08-25T09:29:37.161Z,1014.22
2017-08-25T09:30:46.465Z,1014.21
2017-08-25T09:31:55.774Z,1014.19
2017-08-25T09:33:04.902Z,1014.16
2017-08-25T09:34:13.579Z,1014.15
2017-08-25T09:35:22.239Z,1014.16
2017-08-25T09:36:31.855Z,1014.14
2017-08-25T09:37:40.842Z,1014.13
2017-08-25T09:38:50.800Z,1014.15
2017-08-25T09:39:59.783Z,1014.14
2017-08-25T09:41:09.129Z,1014.16
2017-08-25T09:42:18.131Z,1014.17
2017-08-25T09:43:27.119Z,1014.14
2017-08-25T09:44:36.274Z,1014.19
2017-08-25T09:45:45.258Z,1014.14
2017-08-25T09:46:54.252Z,1014.12
2017-08-25T09:48:03.266Z,1014.14
2017-08-25T09:49:12.576Z,1014.17
2017-08-25T09:50:21.706Z,1014.16
2017-08-25T09:51:30.704Z,1014.16
2017-08-25T09:52:39.370Z,1014.1
2017-08-25T09:53:48.034Z,1014.11
2017-08-25T09:54:57.686Z,1014.1
2017-08-25T09:56:07.158Z,1014.07
2017-08-25T09:57:16.144Z,1014.06
2017-08-25T09:58:24.815Z,1014.06
2017-08-25T09:59:33.510Z,1014.12
2017-08-25T10:00:43.130Z,1014.11
2017-08-25T10:01:52.606Z,1014.11
2017-08-25T10:03:01.614Z,1014.08
2017-08-25T10:04:10.275Z,1014.11
2017-08-25T10:05:19.262Z,1014.09
2017-08-25T10:06:28.879Z,1014.04
2017-08-25T10:07:38.655Z,1014.07
2017-08-25T10:08:48.014Z,1014.04
2017-08-25T10:09:56.992Z,1014.05
2017-08-25T10:11:05.973Z,1014.01
2017-08-25T10:12:15.011Z,1014
2017-08-25T10:13:23.898Z,1014.02
2017-08-25T10:14:32.886Z,1014.03
2017-08-25T10:15:41.568Z,1013.99
2017-08-25T10:16:50.869Z,1014.02
2017-08-25T10:17:59.541Z,1014.02
2017-08-25T10:19:08.819Z,1014.06
2017-08-25T10:20:17.810Z,1014.01
2017-08-25T10:21:26.780Z,1014.06
2017-08-25T10:22:35.779Z,1014.04
2017-08-25T10:23:45.086Z,1014.08
2017-08-25T10:24:53.846Z,1014.07
2017-08-25T10:26:02.841Z,1014.07
2017-08-25T10:27:11.830Z,1014.05
2017-08-25T10:28:21.121Z,1014.03
2017-08-25T10:29:30.497Z,1014.04
2017-08-25T10:30:39.859Z,1014.03
2017-08-25T10:31:48.836Z,1013.98
2017-08-25T10:32:58.135Z,1013.89
2017-08-25T10:34:06.796Z,1013.88
2017-08-25T10:35:15.807Z,1013.83
2017-08-25T10:36:24.616Z,1013.86
2017-08-25T10:37:33.278Z,1013.83
2017-08-25T10:38:41.952Z,1013.79
2017-08-25T10:39:51.890Z,1013.8
2017-08-25T10:41:01.195Z,1013.82
2017-08-25T10:42:10.559Z,1013.8
2017-08-25T10:43:20.201Z,1013.76
2017-08-25T10:44:29.503Z,1013.78
2017-08-25T10:45:39.111Z,1013.72
2017-08-25T10:46:48.135Z,1013.64
2017-08-25T10:47:57.102Z,1013.64
2017-08-25T10:49:06.092Z,1013.63
2017-08-25T10:50:14.779Z,1013.61
2017-08-25T10:51:24.077Z,1013.58
2017-08-25T10:52:33.387Z,1013.56
2017-08-25T10:53:42.068Z,1013.54
2017-08-25T10:54:50.726Z,1013.49
2017-08-25T10:55:59.743Z,1013.53
2017-08-25T10:57:08.407Z,1013.5
2017-08-25T10:58:17.699Z,1013.53
2017-08-25T10:59:27.098Z,1013.5
2017-08-25T11:00:35.791Z,1013.46
2017-08-25T11:01:44.782Z,1013.51
2017-08-25T11:02:53.440Z,1013.49
2017-08-25T11:04:02.558Z,1013.48
2017-08-25T11:05:11.377Z,1013.48
2017-08-25T11:06:20.360Z,1013.48
2017-08-25T11:07:30.002Z,1013.48
2017-08-25T11:08:38.666Z,1013.49
2017-08-25T11:09:47.352Z,1013.44
2017-08-25T11:10:56.338Z,1013.44
2017-08-25T11:12:05.333Z,1013.47
2017-08-25T11:13:14.737Z,1013.45
2017-08-25T11:14:23.439Z,1013.45
2017-08-25T11:15:32.457Z,1013.44
2017-08-25T11:16:41.582Z,1013.41
2017-08-25T11:17:50.599Z,1013.36
2017-08-25T11:18:59.262Z,1013.34
2017-08-25T11:20:08.239Z,1013.38
2017-08-25T11:21:16.910Z,1013.38
2017-08-25T11:22:26.362Z,1013.4
2017-08-25T11:23:35.334Z,1013.4
2017-08-25T11:24:44.324Z,1013.38
2017-08-25T11:25:53.351Z,1013.39
2017-08-25T11:27:02.031Z,1013.4
2017-08-25T11:28:11.501Z,1013.34
2017-08-25T11:29:20.803Z,1013.38
2017-08-25T11:30:30.131Z,1013.35
2017-08-25T11:31:39.119Z,1013.4
2017-08-25T11:32:47.787Z,1013.4
2017-08-25T11:33:58.054Z,1013.42
2017-08-25T11:35:07.031Z,1013.45
2017-08-25T11:36:16.024Z,1013.44
2017-08-25T11:37:25.012Z,1013.44
2017-08-25T11:38:33.999Z,1013.48
2017-08-25T11:39:43.309Z,1013.49
2017-08-25T11:40:52.640Z,1013.48
2017-08-25T11:42:01.949Z,1013.48
2017-08-25T11:43:11.262Z,1013.45
2017-08-25T11:44:20.283Z,1013.37
2017-08-25T11:45:29.618Z,1013.4
2017-08-25T11:46:38.622Z,1013.39
2017-08-25T11:47:47.290Z,1013.33
2017-08-25T11:48:56.273Z,1013.32
2017-08-25T11:50:05.620Z,1013.3
2017-08-25T11:51:14.495Z,1013.35
2017-08-25T11:52:23.493Z,1013.27
2017-08-25T11:53:32.488Z,1013.29
2017-08-25T11:54:41.507Z,1013.28
2017-08-25T11:55:50.618Z,1013.25
2017-08-25T11:57:00.260Z,1013.21
2017-08-25T11:58:09.271Z,1013.24
2017-08-25T11:59:18.253Z,1013.19
2017-08-25T12:00:27.281Z,1013.19
2017-08-25T12:01:36.587Z,1013.15
2017-08-25T12:02:45.760Z,1013.19
2017-08-25T12:03:55.167Z,1013.23
2017-08-25T12:05:04.181Z,1013.26
2017-08-25T12:06:13.263Z,1013.27
2017-08-25T12:07:22.590Z,1013.27
2017-08-25T12:08:31.696Z,1013.29
2017-08-25T12:09:40.373Z,1013.26
2017-08-25T12:10:49.696Z,1013.28
2017-08-25T12:11:58.367Z,1013.26
2017-08-25T12:13:07.346Z,1013.32
2017-08-25T12:14:17.264Z,1013.29
2017-08-25T12:15:25.963Z,1013.3
2017-08-25T12:16:34.664Z,1013.26
2017-08-25T12:17:44.023Z,1013.23
2017-08-25T12:18:52.707Z,1013.18
2017-08-25T12:20:02.209Z,1013.22
2017-08-25T12:21:11.512Z,1013.18
2017-08-25T12:22:21.136Z,1013.17
2017-08-25T12:23:30.792Z,1013.22
2017-08-25T12:24:40.089Z,1013.22
2017-08-25T12:25:49.417Z,1013.19
2017-08-25T12:26:58.464Z,1013.19
2017-08-25T12:28:07.149Z,1013.22
2017-08-25T12:29:16.469Z,1013.23
2017-08-25T12:30:25.461Z,1013.17
2017-08-25T12:31:34.873Z,1013.25
2017-08-25T12:32:43.538Z,1013.22
2017-08-25T12:33:52.521Z,1013.23
2017-08-25T12:35:02.149Z,1013.25
2017-08-25T12:36:11.453Z,1013.19
2017-08-25T12:37:20.613Z,1013.21
2017-08-25T12:38:29.285Z,1013.22
2017-08-25T12:39:38.353Z,1013.14
2017-08-25T12:40:47.658Z,1013.15
2017-08-25T12:41:56.648Z,1013.14
2017-08-25T12:43:05.689Z,1013.13
2017-08-25T12:44:14.681Z,1013.13
2017-08-25T12:45:23.684Z,1013.08
2017-08-25T12:46:33.643Z,1013.07
2017-08-25T12:47:42.977Z,1013.01
2017-08-25T12:48:52.637Z,1013.08
2017-08-25T12:50:01.363Z,1013.02
2017-08-25T12:51:10.374Z,1012.98
2017-08-25T12:52:19.371Z,1013
2017-08-25T12:53:28.362Z,1012.94
2017-08-25T12:54:37.996Z,1012.94
2017-08-25T12:55:46.678Z,1012.93
2017-08-25T12:56:55.378Z,1012.93
2017-08-25T12:58:04.997Z,1012.95
2017-08-25T12:59:13.986Z,1012.89
2017-08-25T13:00:23.132Z,1012.89
2017-08-25T13:01:31.813Z,1012.85
2017-08-25T13:02:40.802Z,1012.85
2017-08-25T13:03:49.852Z,1012.82
2017-08-25T13:04:59.184Z,1012.79
2017-08-25T13:06:08.842Z,1012.79
2017-08-25T13:07:18.184Z,1012.77
2017-08-25T13:08:27.155Z,1012.79
2017-08-25T13:09:36.476Z,1012.76
2017-08-25T13:10:45.788Z,1012.71
2017-08-25T13:11:54.782Z,1012.73
2017-08-25T13:13:03.456Z,1012.72
2017-08-25T13:14:13.105Z,1012.72
2017-08-25T13:15:22.394Z,1012.72
2017-08-25T13:16:31.386Z,1012.73
2017-08-25T13:17:40.763Z,1012.7
2017-08-25T13:18:49.751Z,1012.7
2017-08-25T13:19:59.392Z,1012.67
2017-08-25T13:21:08.427Z,1012.67
2017-08-25T13:22:17.442Z,1012.69
2017-08-25T13:23:26.254Z,1012.66
2017-08-25T13:24:36.175Z,1012.66
2017-08-25T13:25:44.856Z,1012.66
2017-08-25T13:26:53.850Z,1012.63
2017-08-25T13:28:03.174Z,1012.63
2017-08-25T13:29:12.267Z,1012.58
2017-08-25T13:30:22.198Z,1012.57
2017-08-25T13:31:30.886Z,1012.55
2017-08-25T13:32:39.553Z,1012.57
2017-08-25T13:33:49.168Z,1012.59
2017-08-25T13:34:58.528Z,1012.58
2017-08-25T13:36:07.220Z,1012.6
2017-08-25T13:37:16.831Z,1012.65
2017-08-25T13:38:25.809Z,1012.65
2017-08-25T13:39:34.804Z,1012.63
2017-08-25T13:40:44.270Z,1012.63
2017-08-25T13:41:53.921Z,1012.64
2017-08-25T13:43:02.925Z,1012.63
2017-08-25T13:44:12.246Z,1012.65
2017-08-25T13:45:21.561Z,1012.62
2017-08-25T13:46:30.557Z,1012.63
2017-08-25T13:47:39.552Z,1012.63
2017-08-25T13:48:48.244Z,1012.67
2017-08-25T13:49:57.235Z,1012.67
2017-08-25T13:51:06.860Z,1012.63
2017-08-25T13:52:16.162Z,1012.64
2017-08-25T13:53:25.462Z,1012.63
2017-08-25T13:54:34.125Z,1012.61
2017-08-25T13:55:43.472Z,1012.58
2017-08-25T13:56:52.778Z,1012.58
2017-08-25T13:58:01.817Z,1012.65
2017-08-25T13:59:10.507Z,1012.63
2017-08-25T14:00:19.537Z,1012.62